Time;durP1;ratioP1;P1;durP2;ratioP2;P2;SDS_P1;SDS_P2;PMS_P1;PMS_P2;Temp;Humidity;BMP_temperature;BMP_pressure;BME280_temperature;BME280_humidity;BME280_pressure;Samples;Min_cycle;Max_cycle;Signal;HPM_P1;HPM_P2
2022/04/25 00:02:21;;;;;;;14.23;10.43;;;8.60;99.90;;;;;;4895345;29;20214;-69
2022/04/25 00:04:47;;;;;;;18.03;12.00;;;8.70;99.90;;;;;;4894596;29;20580;-68
2022/04/25 00:07:14;;;;;;;16.40;11.10;;;8.60;99.90;;;;;;4891082;29;20210;-69
2022/04/25 00:09:41;;;;;;;16.77;10.47;;;8.90;99.90;;;;;;4895983;29;20225;-69
2022/04/25 00:12:08;;;;;;;15.83;10.77;;;9.00;99.90;;;;;;4895692;29;20202;-68
2022/04/25 00:14:35;;;;;;;16.60;10.53;;;9.10;99.90;;;;;;4896790;29;20484;-69
2022/04/25 00:17:01;;;;;;;18.23;11.37;;;9.20;99.90;;;;;;4895172;29;20203;-69
2022/04/25 00:19:28;;;;;;;14.73;10.27;;;9.30;99.90;;;;;;4897380;29;20261;-67
2022/04/25 00:21:55;;;;;;;16.10;10.77;;;9.30;99.90;;;;;;4895563;29;20218;-68
2022/04/25 00:24:21;;;;;;;14.53;10.30;;;9.30;99.90;;;;;;4893132;29;20200;-69
2022/04/25 00:26:48;;;;;;;14.73;10.07;;;9.30;99.90;;;;;;4894635;29;20199;-68
2022/04/25 00:29:15;;;;;;;13.87;9.77;;;9.20;99.90;;;;;;4894460;29;20220;-69
2022/04/25 00:31:42;;;;;;;15.00;10.43;;;9.10;99.90;;;;;;4893421;29;21899;-69
2022/04/25 00:34:09;;;;;;;16.30;9.97;;;9.10;99.90;;;;;;4897709;29;20242;-69
2022/04/25 00:36:35;;;;;;;15.10;9.87;;;9.00;99.90;;;;;;4894600;29;20196;-71
2022/04/25 00:39:02;;;;;;;14.23;10.03;;;9.00;99.90;;;;;;4898522;29;20199;-69
2022/04/25 00:41:30;;;;;;;15.37;10.87;;;9.00;99.90;;;;;;4908209;29;20755;-69
2022/04/25 00:43:57;;;;;;;14.03;10.13;;;9.00;99.90;;;;;;4893121;29;20207;-69
2022/04/25 00:46:26;;;;;;;14.30;9.97;;;9.10;99.90;;;;;;4894222;29;20212;-69
2022/04/25 00:48:53;;;;;;;15.53;10.60;;;9.20;99.90;;;;;;4894366;29;20574;-71
2022/04/25 00:51:20;;;;;;;14.70;10.10;;;9.20;99.90;;;;;;4891023;29;20295;-71
2022/04/25 00:53:47;;;;;;;15.37;10.77;;;9.10;99.90;;;;;;4897752;29;20203;-68
2022/04/25 00:56:17;;;;;;;15.50;10.80;;;9.10;99.90;;;;;;4894524;29;20624;-68
2022/04/25 00:58:44;;;;;;;15.70;10.37;;;9.10;99.90;;;;;;4892595;29;20212;-71
2022/04/25 01:01:15;;;;;;;16.07;10.27;;;9.20;99.90;;;;;;4890352;29;20236;-69
2022/04/25 01:03:42;;;;;;;15.37;10.67;;;9.20;99.90;;;;;;4894357;29;20204;-70
2022/04/25 01:06:08;;;;;;;15.20;10.67;;;9.30;99.90;;;;;;4894865;29;20267;-68
2022/04/25 01:08:37;;;;;;;15.57;10.67;;;9.30;99.90;;;;;;4896550;29;20756;-66
2022/04/25 01:11:05;;;;;;;15.33;10.77;;;9.40;99.90;;;;;;4900655;29;20231;-72
2022/04/25 01:13:32;;;;;;;17.10;11.37;;;9.30;99.90;;;;;;4902030;29;20200;-69
2022/04/25 01:15:59;;;;;;;16.60;11.47;;;9.40;99.90;;;;;;4900484;29;20257;-69
2022/04/25 01:18:26;;;;;;;15.47;10.50;;;9.40;99.90;;;;;;4896142;29;20623;-68
2022/04/25 01:20:56;;;;;;;14.80;10.83;;;9.40;99.90;;;;;;4890454;29;20285;-71
2022/04/25 01:28:54;;;;;;;16.20;10.77;;;9.10;99.90;;;;;;4895290;29;20601;-69
2022/04/25 01:31:21;;;;;;;15.90;10.37;;;9.00;99.90;;;;;;4888489;29;20242;-69
2022/04/25 01:33:48;;;;;;;15.30;10.07;;;8.90;99.90;;;;;;4893547;29;20211;-67
2022/04/25 01:36:15;;;;;;;15.30;10.23;;;8.80;99.90;;;;;;4894284;29;20222;-70
2022/04/25 01:38:42;;;;;;;14.33;10.37;;;8.70;99.90;;;;;;4894755;29;20217;-70
2022/04/25 01:41:08;;;;;;;16.67;11.07;;;8.70;99.90;;;;;;4892841;29;20231;-69
2022/04/25 01:43:38;;;;;;;18.07;10.90;;;8.50;99.90;;;;;;4898659;29;20634;-67
2022/04/25 01:46:04;;;;;;;14.87;10.17;;;8.40;99.90;;;;;;4892613;29;20214;-68
2022/04/25 01:48:31;;;;;;;16.07;10.70;;;8.30;99.90;;;;;;4893506;29;20207;-70
2022/04/25 01:50:58;;;;;;;18.53;10.60;;;8.20;99.90;;;;;;4895838;29;20230;-70
2022/04/25 01:53:25;;;;;;;16.23;10.90;;;8.10;99.90;;;;;;4894507;29;20532;-69
2022/04/25 01:55:52;;;;;;;15.93;10.87;;;8.00;99.90;;;;;;4889655;29;20270;-69
2022/04/25 01:58:19;;;;;;;19.00;12.23;;;7.90;99.90;;;;;;4907902;29;20722;-71
2022/04/25 02:00:46;;;;;;;18.37;11.30;;;8.00;99.90;;;;;;4895247;29;20229;-69
2022/04/25 02:03:13;;;;;;;18.23;12.00;;;7.90;99.90;;;;;;4892543;29;20578;-70
2022/04/25 02:05:40;;;;;;;18.43;12.13;;;7.80;99.90;;;;;;4893842;29;20231;-69
2022/04/25 02:08:07;;;;;;;17.90;11.83;;;7.90;99.90;;;;;;4894580;29;20203;-69
2022/04/25 02:10:33;;;;;;;20.23;12.17;;;7.80;99.90;;;;;;4893257;29;20232;-71
2022/04/25 02:13:00;;;;;;;20.73;13.70;;;7.70;99.90;;;;;;4890969;29;20597;-69
2022/04/25 02:15:27;;;;;;;20.73;12.47;;;7.60;99.90;;;;;;4894846;29;20272;-69
2022/04/25 02:17:53;;;;;;;19.77;12.57;;;7.50;99.90;;;;;;4892969;29;20301;-72
2022/04/25 02:20:20;;;;;;;18.60;12.00;;;7.40;99.90;;;;;;4892118;29;20220;-69
2022/04/25 02:22:48;;;;;;;19.40;12.97;;;7.30;99.90;;;;;;4896654;29;20197;-69
2022/04/25 02:25:14;;;;;;;19.70;13.13;;;7.20;99.90;;;;;;4897079;29;20196;-70
2022/04/25 02:27:41;;;;;;;21.40;13.37;;;7.40;99.90;;;;;;4898003;29;20212;-69
2022/04/25 02:30:08;;;;;;;20.50;13.33;;;7.40;99.90;;;;;;4896637;29;20232;-69
2022/04/25 02:32:35;;;;;;;21.97;13.70;;;7.30;99.90;;;;;;4898796;29;20198;-68
2022/04/25 02:35:02;;;;;;;21.80;13.67;;;7.30;99.90;;;;;;4894901;29;20207;-69
2022/04/25 02:37:28;;;;;;;21.10;13.57;;;7.30;99.90;;;;;;4901436;29;20207;-70
2022/04/25 02:39:55;;;;;;;20.73;13.20;;;7.20;99.90;;;;;;4896841;29;20212;-69
2022/04/25 02:42:22;;;;;;;20.77;13.33;;;7.20;99.90;;;;;;4897647;29;20268;-69
2022/04/25 02:44:48;;;;;;;27.07;14.17;;;7.20;99.90;;;;;;4909235;29;20436;-70
2022/04/25 02:47:15;;;;;;;21.80;13.47;;;7.20;99.90;;;;;;4896161;29;20336;-71
2022/04/25 02:49:41;;;;;;;22.53;13.80;;;7.30;99.90;;;;;;4898486;29;20223;-69
2022/04/25 02:52:08;;;;;;;23.20;14.33;;;7.50;99.90;;;;;;4895907;29;20224;-69
2022/04/25 02:54:35;;;;;;;19.63;13.57;;;7.50;99.90;;;;;;4896803;29;20209;-69
2022/04/25 02:57:02;;;;;;;24.30;14.80;;;7.70;99.90;;;;;;4893721;29;20201;-70
2022/04/25 02:59:28;;;;;;;21.97;13.63;;;7.80;99.90;;;;;;4898322;29;20688;-69
2022/04/25 03:01:55;;;;;;;21.33;14.03;;;8.00;99.90;;;;;;4895239;29;20212;-68
2022/04/25 03:04:22;;;;;;;18.57;12.67;;;8.10;99.90;;;;;;4896381;29;20275;-68
2022/04/25 03:06:48;;;;;;;19.63;13.57;;;8.20;99.90;;;;;;4896360;29;20204;-69
2022/04/25 03:09:15;;;;;;;21.20;13.10;;;8.10;99.90;;;;;;4899306;29;20317;-69
2022/04/25 03:11:41;;;;;;;16.93;11.53;;;8.20;99.90;;;;;;4894139;29;20395;-70
2022/04/25 03:14:08;;;;;;;18.80;11.67;;;8.20;99.90;;;;;;4896937;29;20437;-69
2022/04/25 03:16:35;;;;;;;17.67;12.30;;;8.20;99.90;;;;;;4895861;29;20252;-68
2022/04/25 03:19:01;;;;;;;18.60;12.20;;;8.20;99.90;;;;;;4895079;29;20202;-71
2022/04/25 03:21:28;;;;;;;15.50;11.07;;;8.20;99.90;;;;;;4895971;29;20227;-69
2022/04/25 03:23:55;;;;;;;17.17;11.47;;;8.20;99.90;;;;;;4899356;29;20201;-70
2022/04/25 03:26:22;;;;;;;19.10;11.80;;;8.20;99.90;;;;;;4891989;29;20222;-69
2022/04/25 03:28:49;;;;;;;17.50;11.87;;;8.30;99.90;;;;;;4896051;29;20234;-69
2022/04/25 03:31:15;;;;;;;18.53;11.53;;;8.40;99.90;;;;;;4895544;29;20217;-70
2022/04/25 03:33:42;;;;;;;19.40;11.93;;;8.60;99.90;;;;;;4894360;29;20205;-69
2022/04/25 03:36:09;;;;;;;17.03;11.80;;;8.60;99.90;;;;;;4897662;29;20195;-69
2022/04/25 03:38:35;;;;;;;16.80;11.07;;;8.70;99.90;;;;;;4898932;29;20204;-71
2022/04/25 03:41:02;;;;;;;17.33;11.57;;;8.90;99.90;;;;;;4896680;29;20234;-71
2022/04/25 03:43:31;;;;;;;14.87;10.63;;;8.90;99.90;;;;;;4895896;29;20266;-69
2022/04/25 03:45:58;;;;;;;14.73;10.53;;;8.80;99.90;;;;;;4894389;29;20217;-72
2022/04/25 03:48:25;;;;;;;16.53;11.17;;;8.60;99.90;;;;;;4895539;29;20670;-69
2022/04/25 03:50:51;;;;;;;17.23;11.67;;;8.50;99.90;;;;;;4894732;29;20284;-69
2022/04/25 03:53:18;;;;;;;16.77;11.03;;;8.50;99.90;;;;;;4895358;29;20202;-69
2022/04/25 03:58:31;;;;;;;17.43;11.57;;;8.40;99.90;;;;;;4897516;29;20209;-69
2022/04/25 04:00:58;;;;;;;17.07;11.53;;;8.50;99.90;;;;;;4895153;29;20234;-68
2022/04/25 04:03:24;;;;;;;16.07;10.77;;;8.40;99.90;;;;;;4897604;29;20205;-69
2022/04/25 04:05:53;;;;;;;16.07;11.77;;;8.40;99.90;;;;;;4895978;29;20661;-69
2022/04/25 04:08:20;;;;;;;15.77;10.70;;;8.30;99.90;;;;;;4893694;29;20208;-69
2022/04/25 04:10:46;;;;;;;16.93;11.03;;;8.20;99.90;;;;;;4896290;29;20612;-68
2022/04/25 04:13:13;;;;;;;18.53;11.70;;;8.00;99.90;;;;;;4896449;29;20205;-70
2022/04/25 04:15:40;;;;;;;17.93;11.63;;;8.00;99.90;;;;;;4895173;29;20613;-70
2022/04/25 04:18:08;;;;;;;21.53;12.13;;;7.90;99.90;;;;;;4893568;29;20196;-69
2022/04/25 04:20:35;;;;;;;20.80;13.23;;;7.70;99.90;;;;;;4893663;29;20227;-70
2022/04/25 04:23:02;;;;;;;21.77;13.20;;;7.70;99.90;;;;;;4892423;29;20666;-69
2022/04/25 04:25:31;;;;;;;21.67;13.43;;;7.80;99.90;;;;;;4894785;29;20200;-69
2022/04/25 04:27:57;;;;;;;20.20;12.37;;;7.90;99.90;;;;;;4893897;29;20207;-71
2022/04/25 04:30:24;;;;;;;20.70;12.60;;;7.90;99.90;;;;;;4889514;29;20239;-69
2022/04/25 04:32:52;;;;;;;19.27;13.50;;;7.90;99.90;;;;;;4892833;29;20232;-69
2022/04/25 04:38:06;;;;;;;23.70;13.17;;;7.90;99.90;;;;;;4894074;29;20211;-71
2022/04/25 04:40:33;;;;;;;21.43;13.20;;;7.90;99.90;;;;;;4892813;29;20220;-70
2022/04/25 04:43:00;;;;;;;20.07;12.63;;;7.90;99.90;;;;;;4885056;29;20255;-69
2022/04/25 04:45:28;;;;;;;18.60;12.20;;;8.00;99.90;;;;;;4891708;29;20231;-70
2022/04/25 04:47:55;;;;;;;20.00;12.37;;;7.70;99.90;;;;;;4893052;29;20208;-68
2022/04/25 04:50:22;;;;;;;21.67;12.80;;;7.80;99.90;;;;;;4893903;29;20227;-69
2022/04/25 04:52:57;;;;;;;19.10;13.07;;;7.80;99.90;;;;;;4893925;29;20224;-69
2022/04/25 04:55:24;;;;;;;21.30;13.50;;;8.00;99.90;;;;;;4893614;29;20203;-69
2022/04/25 04:57:52;;;;;;;18.93;12.50;;;8.20;99.90;;;;;;4889004;29;20256;-69
2022/04/25 05:00:19;;;;;;;20.30;12.70;;;8.20;99.90;;;;;;4890859;29;20280;-69
2022/04/25 05:02:46;;;;;;;18.20;12.17;;;8.20;99.90;;;;;;4895162;29;20725;-69
2022/04/25 05:05:13;;;;;;;17.63;12.30;;;8.20;99.90;;;;;;4890296;29;20210;-69
2022/04/25 05:07:40;;;;;;;18.40;11.93;;;8.40;99.90;;;;;;4893214;29;20655;-69
2022/04/25 05:10:08;;;;;;;20.90;11.80;;;8.60;99.90;;;;;;4893829;29;20232;-70
2022/04/25 05:12:51;;;;;;;15.67;11.13;;;8.70;99.90;;;;;;4892031;29;20224;-70
2022/04/25 05:15:19;;;;;;;18.20;12.17;;;8.90;99.90;;;;;;4891878;29;20677;-69
2022/04/25 05:17:48;;;;;;;20.17;12.47;;;9.20;99.90;;;;;;4891144;29;20621;-69
2022/04/25 05:20:16;;;;;;;17.03;12.37;;;9.40;99.90;;;;;;4893076;29;20229;-70
2022/04/25 05:22:47;;;;;;;18.23;11.80;;;9.60;99.90;;;;;;4895472;29;20637;-68
2022/04/25 05:25:15;;;;;;;20.90;12.40;;;9.80;99.90;;;;;;4894168;29;20217;-69
2022/04/25 05:27:43;;;;;;;19.13;12.33;;;10.10;99.90;;;;;;4895679;29;20216;-69
2022/04/25 05:30:11;;;;;;;18.73;12.00;;;10.00;99.90;;;;;;4894029;29;20228;-69
2022/04/25 05:32:48;;;;;;;19.47;11.97;;;10.10;99.90;;;;;;4891014;29;20232;-71
2022/04/25 05:35:16;;;;;;;18.07;12.27;;;10.20;99.90;;;;;;4897072;29;20215;-69
2022/04/25 05:37:44;;;;;;;19.40;12.27;;;10.30;99.90;;;;;;4893558;29;20268;-69
2022/04/25 05:40:12;;;;;;;16.80;12.57;;;10.40;99.90;;;;;;4894632;29;20216;-69
2022/04/25 05:42:43;;;;;;;18.70;12.83;;;10.40;99.90;;;;;;4895467;29;20215;-69
2022/04/25 05:45:12;;;;;;;19.63;13.30;;;10.40;99.90;;;;;;4891839;29;20200;-71
2022/04/25 05:47:39;;;;;;;16.57;11.63;;;10.40;99.90;;;;;;4906422;29;20204;-69
2022/04/25 05:52:55;;;;;;;25.70;13.10;;;10.10;99.90;;;;;;4891077;29;20226;-69
2022/04/25 05:55:23;;;;;;;22.27;12.10;;;10.10;99.90;;;;;;4892484;29;20204;-69
2022/04/25 05:57:53;;;;;;;33.93;14.27;;;10.00;99.90;;;;;;4893229;29;20210;-68
2022/04/25 06:00:26;;;;;;;34.63;14.60;;;9.90;99.90;;;;;;4894520;29;20429;-71
2022/04/25 06:02:55;;;;;;;26.23;14.47;;;9.90;99.90;;;;;;4890509;29;20223;-71
2022/04/25 06:05:21;;;;;;;22.57;12.80;;;10.00;99.90;;;;;;4894530;29;20219;-71
2022/04/25 06:07:48;;;;;;;23.23;14.50;;;10.00;99.90;;;;;;4896959;29;20214;-70
2022/04/25 06:10:17;;;;;;;20.80;13.47;;;10.20;99.90;;;;;;4894797;29;20225;-70
2022/04/25 06:12:48;;;;;;;21.57;14.13;;;10.40;99.90;;;;;;4896627;29;20704;-70
2022/04/25 06:15:17;;;;;;;22.53;14.67;;;10.50;99.90;;;;;;4895345;29;20192;-70
2022/04/25 06:17:50;;;;;;;23.00;16.03;;;10.60;99.90;;;;;;4889037;29;20589;-69
2022/04/25 06:20:17;;;;;;;25.13;16.00;;;10.70;99.90;;;;;;4895782;29;20218;-69
2022/04/25 06:22:56;;;;;;;32.37;15.83;;;10.70;99.90;;;;;;4895437;29;20233;-69
2022/04/25 06:25:24;;;;;;;21.83;14.40;;;10.80;99.90;;;;;;4894224;29;20208;-70
2022/04/25 06:27:51;;;;;;;22.37;15.43;;;10.80;99.90;;;;;;4890498;29;20661;-69
2022/04/25 06:30:18;;;;;;;28.50;17.60;;;10.80;99.90;;;;;;4896664;29;20231;-70
2022/04/25 06:32:45;;;;;;;26.37;16.80;;;10.70;99.90;;;;;;4893370;29;20726;-68
2022/04/25 06:35:11;;;;;;;27.23;16.40;;;10.80;99.90;;;;;;4898271;29;20197;-68
2022/04/25 06:37:38;;;;;;;27.47;17.13;;;10.80;99.90;;;;;;4896013;29;20593;-65
2022/04/25 06:40:06;;;;;;;24.77;16.33;;;10.70;99.90;;;;;;4894189;29;20397;-67
2022/04/25 06:42:33;;;;;;;27.90;18.50;;;10.60;99.90;;;;;;4893232;29;20208;-68
2022/04/25 06:45:00;;;;;;;34.33;18.03;;;10.70;99.90;;;;;;4891932;29;20622;-68
2022/04/25 06:47:26;;;;;;;29.73;18.73;;;10.80;99.90;;;;;;4896087;29;20529;-69
2022/04/25 06:49:54;;;;;;;27.17;17.77;;;11.00;99.90;;;;;;4889342;29;20232;-71
2022/04/25 06:52:21;;;;;;;28.97;17.60;;;11.30;99.90;;;;;;4892432;29;20216;-69
2022/04/25 06:54:48;;;;;;;27.77;16.63;;;11.70;99.90;;;;;;4897198;29;20200;-72
2022/04/25 06:57:15;;;;;;;24.80;16.13;;;12.10;99.90;;;;;;4896516;29;20215;-71
2022/04/25 06:59:43;;;;;;;22.87;15.53;;;12.60;99.90;;;;;;4895027;29;20227;-77
2022/04/25 07:02:11;;;;;;;24.13;15.37;;;13.00;99.90;;;;;;4892278;29;20216;-80
2022/04/25 07:04:38;;;;;;;22.77;16.00;;;13.20;99.90;;;;;;4895493;29;20200;-80
2022/04/25 07:07:04;;;;;;;23.57;15.77;;;13.50;99.90;;;;;;4893257;29;20235;-73
2022/04/25 07:09:31;;;;;;;25.40;15.83;;;13.70;99.90;;;;;;4890080;29;20220;-71
2022/04/25 07:12:00;;;;;;;22.17;15.97;;;13.80;99.90;;;;;;4890541;29;20225;-71
2022/04/25 07:14:28;;;;;;;23.93;15.83;;;14.00;99.90;;;;;;4892291;29;20208;-71
2022/04/25 07:16:59;;;;;;;21.00;13.87;;;14.50;99.90;;;;;;4889393;29;20214;-72
2022/04/25 07:19:27;;;;;;;19.47;13.83;;;14.80;99.90;;;;;;4892371;29;21219;-70
2022/04/25 07:30:14;;;;;;;22.10;15.47;;;15.30;99.90;;;;;;4897708;29;20520;-72
2022/04/25 07:32:41;;;;;;;21.53;15.00;;;15.40;99.90;;;;;;4897714;29;20227;-69
2022/04/25 07:35:08;;;;;;;25.07;16.13;;;15.80;99.90;;;;;;4892153;29;20235;-70
2022/04/25 07:37:35;;;;;;;21.13;14.40;;;15.70;99.90;;;;;;4897161;29;20207;-70
2022/04/25 07:40:03;;;;;;;22.63;15.07;;;15.90;99.90;;;;;;4899519;29;20212;-70
2022/04/25 07:42:33;;;;;;;22.00;14.93;;;16.00;99.90;;;;;;4900279;29;20204;-68
2022/04/25 07:45:01;;;;;;;20.43;13.87;;;16.10;99.90;;;;;;4887526;29;20216;-69
2022/04/25 07:47:27;;;;;;;22.30;14.33;;;16.30;99.90;;;;;;4890982;29;20204;-68
2022/04/25 07:49:54;;;;;;;21.53;14.83;;;16.50;99.90;;;;;;4890703;29;20228;-70
2022/04/25 07:52:21;;;;;;;22.80;14.10;;;16.50;99.90;;;;;;4888747;29;20608;-69
2022/04/25 07:54:48;;;;;;;20.47;14.23;;;16.70;99.90;;;;;;4890309;29;20204;-69
2022/04/25 07:57:15;;;;;;;24.47;14.97;;;17.00;99.90;;;;;;4886567;29;20212;-69
2022/04/25 07:59:42;;;;;;;21.27;15.10;;;17.10;99.90;;;;;;4893335;29;20720;-69
2022/04/25 08:02:09;;;;;;;22.07;15.17;;;17.00;99.90;;;;;;4891260;29;20723;-69
2022/04/25 08:04:36;;;;;;;21.07;15.13;;;16.90;99.90;;;;;;4891890;29;20294;-67
2022/04/25 08:07:03;;;;;;;22.33;15.30;;;16.40;99.90;;;;;;4909697;29;20208;-67
2022/04/25 08:09:29;;;;;;;20.27;14.77;;;16.60;99.90;;;;;;4892920;29;20224;-68
2022/04/25 08:20:13;;;;;;;22.90;15.60;;;16.70;99.90;;;;;;4890258;29;20227;-66
2022/04/25 08:22:39;;;;;;;21.07;13.73;;;17.10;99.90;;;;;;4891819;29;20204;-68
2022/04/25 08:25:08;;;;;;;21.83;14.57;;;17.20;99.90;;;;;;4890057;29;20208;-69
2022/04/25 08:27:40;;;;;;;21.33;14.83;;;17.20;99.90;;;;;;4887740;29;20647;-72
2022/04/25 08:30:07;;;;;;;23.13;14.70;;;17.30;99.90;;;;;;4890257;29;20224;-69
2022/04/25 08:32:34;;;;;;;19.53;14.00;;;17.40;99.90;;;;;;4893674;29;20220;-70
2022/04/25 08:35:01;;;;;;;23.07;13.90;;;17.50;99.90;;;;;;4892565;29;20230;-71
2022/04/25 08:37:28;;;;;;;19.87;13.40;;;17.70;99.90;;;;;;4886614;29;20221;-68
2022/04/25 08:40:03;;;;;;;20.00;13.80;;;18.00;99.90;;;;;;4888890;29;20319;-67
2022/04/25 08:42:31;;;;;;;22.43;14.53;;;18.00;99.90;;;;;;4895792;29;20208;-70
2022/04/25 08:45:10;;;;;;;18.20;13.20;;;18.00;99.90;;;;;;4893212;29;20200;-69
2022/04/25 08:47:49;;;;;;;18.33;12.13;;;18.10;99.90;;;;;;4895075;29;20219;-68
2022/04/25 08:50:17;;;;;;;16.70;11.53;;;18.10;99.90;;;;;;4892043;29;20220;-69
2022/04/25 08:52:45;;;;;;;16.57;12.50;;;18.10;99.90;;;;;;4895209;29;20330;-69
2022/04/25 08:55:13;;;;;;;17.30;11.90;;;17.90;99.90;;;;;;4894173;29;20204;-69
2022/04/25 08:57:42;;;;;;;18.07;12.03;;;17.80;99.90;;;;;;4892710;29;20196;-69
2022/04/25 09:00:10;;;;;;;16.37;11.50;;;17.90;99.90;;;;;;4890440;29;20247;-69
2022/04/25 09:02:40;;;;;;;16.47;11.20;;;18.00;99.90;;;;;;4892009;29;20212;-67
2022/04/25 09:05:12;;;;;;;18.13;11.50;;;17.90;99.90;;;;;;4894969;29;20299;-70
2022/04/25 09:07:40;;;;;;;16.50;11.27;;;17.50;99.90;;;;;;4898427;29;20208;-69
2022/04/25 09:10:13;;;;;;;15.50;11.23;;;17.90;99.90;;;;;;4891272;29;20252;-68
2022/04/25 09:12:42;;;;;;;13.50;9.80;;;18.20;99.90;;;;;;4889424;29;20232;-71
2022/04/25 09:15:20;;;;;;;16.00;9.93;;;18.10;99.90;;;;;;4891367;29;20192;-68
2022/04/25 09:17:54;;;;;;;12.27;9.20;;;17.50;99.90;;;;;;4891679;29;20200;-72
2022/04/25 09:20:22;;;;;;;15.93;9.63;;;17.30;99.90;;;;;;4892327;29;20216;-70
2022/04/25 09:22:49;;;;;;;14.87;10.00;;;17.30;99.90;;;;;;4891386;29;20340;-72
2022/04/25 09:25:17;;;;;;;14.47;10.40;;;17.40;99.90;;;;;;4893068;29;20200;-70
2022/04/25 09:28:13;;;;;;;13.40;9.90;;;17.50;99.90;;;;;;4892856;29;20653;-71
2022/04/25 09:31:00;;;;;;;13.70;9.87;;;17.80;99.90;;;;;;4890860;29;20675;-73
2022/04/25 09:33:27;;;;;;;13.97;9.13;;;18.30;99.90;;;;;;4890596;29;20306;-72
2022/04/25 09:35:56;;;;;;;12.33;9.33;;;18.70;99.90;;;;;;4892344;29;20200;-69
2022/04/25 09:38:34;;;;;;;14.27;9.93;;;18.90;99.90;;;;;;4887053;29;20224;-71
2022/04/25 09:41:03;;;;;;;12.17;9.63;;;19.10;99.90;;;;;;4884483;29;20216;-71
2022/04/25 09:43:31;;;;;;;19.40;8.73;;;19.50;99.90;;;;;;4894608;29;20700;-72
2022/04/25 09:46:01;;;;;;;13.47;9.93;;;19.80;99.90;;;;;;4893191;29;20204;-72
2022/04/25 09:48:28;;;;;;;13.53;9.10;;;19.80;99.90;;;;;;4893979;29;20201;-70
2022/04/25 09:51:16;;;;;;;10.77;8.47;;;19.40;99.90;;;;;;4889844;29;20306;-71
2022/04/25 09:53:46;;;;;;;12.50;9.23;;;19.30;99.90;;;;;;4892800;29;20225;-70
2022/04/25 09:56:22;;;;;;;14.53;9.80;;;19.50;99.90;;;;;;4891741;29;20259;-70
2022/04/25 09:59:09;;;;;;;11.85;9.13;;;19.30;99.90;;;;;;4892987;29;20200;-70
2022/04/25 10:01:40;;;;;;;14.07;8.77;;;19.50;99.90;;;;;;4892596;29;20210;-74
2022/04/25 10:04:31;;;;;;;13.60;9.03;;;19.70;99.90;;;;;;4892340;29;20200;-70
2022/04/25 10:07:03;;;;;;;12.47;8.70;;;19.50;99.90;;;;;;4889952;29;20220;-70
2022/04/25 10:09:31;;;;;;;11.67;8.70;;;19.40;99.90;;;;;;4890769;29;20220;-73
2022/04/25 10:12:01;;;;;;;11.43;8.30;;;19.30;99.90;;;;;;4905290;29;20200;-71
2022/04/25 10:14:28;;;;;;;11.77;8.37;;;19.40;99.90;;;;;;4891351;29;20239;-70
2022/04/25 10:16:57;;;;;;;10.80;7.70;;;19.30;99.90;;;;;;4890299;29;21086;-73
2022/04/25 10:19:25;;;;;;;15.00;8.00;;;19.20;99.90;;;;;;4906037;29;20222;-74
2022/04/25 10:21:53;;;;;;;11.70;8.57;;;19.40;99.90;;;;;;4890383;29;20620;-70
2022/04/25 10:24:20;;;;;;;11.70;7.43;;;19.30;99.90;;;;;;4889171;29;20204;-71
2022/04/25 10:26:49;;;;;;;11.57;8.30;;;19.50;99.90;;;;;;4886205;29;20218;-71
2022/04/25 10:29:21;;;;;;;12.90;8.50;;;19.70;99.90;;;;;;4887732;29;20235;-72
2022/04/25 10:31:49;;;;;;;9.87;7.87;;;19.30;99.90;;;;;;4885435;29;20215;-72
2022/04/25 10:34:16;;;;;;;13.37;8.10;;;19.00;99.90;;;;;;4885384;29;20608;-73
2022/04/25 10:36:46;;;;;;;12.47;7.50;;;18.60;99.90;;;;;;4887753;29;20197;-73
2022/04/25 10:39:15;;;;;;;9.63;7.63;;;18.80;99.90;;;;;;4885870;29;20220;-72
2022/04/25 10:44:46;;;;;;;11.53;8.30;;;19.90;99.90;;;;;;4892553;29;20205;-73
2022/04/25 10:47:13;;;;;;;9.90;7.85;;;20.40;99.90;;;;;;4893757;29;20428;-71
2022/04/25 10:49:59;;;;;;;12.40;8.50;;;20.30;99.90;;;;;;4886894;29;20224;-75
2022/04/25 10:52:33;;;;;;;12.55;8.30;;;20.00;99.90;;;;;;4888973;29;20279;-73
2022/04/25 10:55:30;;;;;;;12.27;8.05;;;20.30;99.90;;;;;;4893632;29;20195;-72
2022/04/25 10:58:03;;;;;;;11.30;7.82;;;20.60;99.90;;;;;;4894289;29;20335;-73
2022/04/25 11:00:39;;;;;;;10.75;6.90;;;20.80;99.90;;;;;;4881932;29;20221;-71
2022/04/25 11:03:06;;;;;;;15.52;7.47;;;20.80;99.90;;;;;;4891805;29;20320;-68
2022/04/25 11:05:35;;;;;;;14.35;7.75;;;20.80;99.90;;;;;;4895704;29;20580;-70
2022/04/25 11:08:27;;;;;;;9.40;7.13;;;20.70;99.90;;;;;;4908535;29;20204;-71
2022/04/25 11:10:56;;;;;;;10.10;7.10;;;20.60;99.90;;;;;;4896793;29;20243;-72
2022/04/25 11:13:26;;;;;;;10.60;7.43;;;20.40;99.90;;;;;;4893945;29;20224;-70
2022/04/25 11:15:56;;;;;;;12.02;8.10;;;20.40;99.90;;;;;;4891672;29;20201;-70
2022/04/25 11:18:37;;;;;;;14.63;8.80;;;20.00;99.90;;;;;;4888382;29;20213;-74
2022/04/25 11:21:16;;;;;;;10.70;8.52;;;20.20;99.90;;;;;;4887914;29;20219;-72
2022/04/25 11:23:45;;;;;;;12.68;8.70;;;20.50;99.90;;;;;;4883583;29;20287;-71
2022/04/25 11:26:21;;;;;;;12.23;8.68;;;20.50;99.90;;;;;;4889395;29;20218;-69
2022/04/25 11:29:03;;;;;;;11.27;8.60;;;20.50;99.90;;;;;;4889185;29;20204;-72
2022/04/25 11:31:31;;;;;;;13.18;9.25;;;19.90;99.90;;;;;;4886158;29;20196;-71
2022/04/25 11:34:01;;;;;;;12.03;8.63;;;19.90;99.90;;;;;;4888309;29;20271;-71
2022/04/25 11:36:29;;;;;;;11.30;8.70;;;20.10;99.90;;;;;;4902238;29;20618;-72
2022/04/25 11:41:44;;;;;;;15.47;8.77;;;19.80;99.90;;;;;;4891196;29;20209;-71
2022/04/25 11:44:11;;;;;;;9.23;7.70;;;19.60;99.90;;;;;;4888219;29;20589;-71
2022/04/25 11:46:38;;;;;;;10.17;7.53;;;19.50;99.90;;;;;;4887832;29;20231;-68
2022/04/25 11:49:06;;;;;;;13.30;7.87;;;19.40;99.90;;;;;;4889142;29;20247;-70
2022/04/25 11:51:37;;;;;;;11.43;8.00;;;19.50;99.90;;;;;;4886639;29;20263;-71
2022/04/25 11:54:10;;;;;;;11.67;7.77;;;19.10;99.90;;;;;;4890239;29;20288;-70
2022/04/25 11:56:39;;;;;;;11.00;8.97;;;19.00;99.90;;;;;;4888467;29;20239;-71
2022/04/25 11:59:15;;;;;;;14.70;8.93;;;18.50;99.90;;;;;;4887261;29;20256;-70
2022/04/25 12:01:47;;;;;;;15.67;8.43;;;18.20;99.90;;;;;;4887351;29;20681;-73
2022/04/25 12:04:28;;;;;;;11.80;7.87;;;18.40;99.90;;;;;;4887964;29;20505;-72
2022/04/25 12:07:06;;;;;;;10.43;7.50;;;19.30;99.90;;;;;;4887792;29;20691;-72
2022/04/25 12:15:34;;;;;;;11.98;7.90;;;21.50;99.90;;;;;;4889339;29;20586;-73
2022/04/25 12:15:34;;;;;;;10.82;8.10;;;20.90;99.90;;;;;;4890052;29;20205;-75
2022/04/25 12:18:17;;;;;;;10.30;7.60;;;21.90;99.90;;;;;;4881868;29;20199;-73
2022/04/25 12:20:49;;;;;;;9.48;7.22;;;22.30;99.90;;;;;;4888864;29;20224;-73
2022/04/25 12:23:25;;;;;;;8.88;7.13;;;22.50;99.90;;;;;;4890679;29;20595;-70
2022/04/25 12:25:53;;;;;;;7.80;6.53;;;22.00;99.90;;;;;;4887161;29;20702;-73
2022/04/25 12:28:24;;;;;;;10.48;7.50;;;21.60;99.90;;;;;;4920123;29;20665;-75
2022/04/25 12:31:08;;;;;;;8.27;7.10;;;21.40;99.90;;;;;;4889094;29;20613;-71
2022/04/25 12:33:41;;;;;;;8.70;6.90;;;20.90;99.90;;;;;;4890881;29;20223;-71
2022/04/25 12:36:16;;;;;;;10.13;7.40;;;20.80;99.90;;;;;;4881913;29;20203;-74
2022/04/25 12:38:53;;;;;;;8.48;6.70;;;20.80;99.90;;;;;;4891862;29;20676;-70
2022/04/25 12:41:32;;;;;;;8.63;7.05;;;20.90;99.90;;;;;;4892871;29;20199;-72
2022/04/25 12:44:13;;;;;;;9.63;7.30;;;21.00;99.90;;;;;;4894821;29;20220;-72
2022/04/25 12:46:43;;;;;;;11.30;7.32;;;20.90;99.90;;;;;;4887586;29;20200;-72
2022/04/25 12:49:14;;;;;;;11.77;7.82;;;20.60;99.90;;;;;;4888391;29;20219;-71
2022/04/25 12:51:51;;;;;;;9.82;7.35;;;20.30;99.90;;;;;;4906761;29;20219;-72
2022/04/25 12:54:23;;;;;;;9.93;7.15;;;20.30;99.90;;;;;;4893207;29;20220;-71
2022/04/25 12:57:08;;;;;;;11.63;7.80;;;20.30;99.90;;;;;;4889343;29;20551;-71
2022/04/25 12:59:35;;;;;;;12.07;7.30;;;20.40;99.90;;;;;;4881813;29;20502;-73
2022/04/25 13:02:11;;;;;;;11.43;7.65;;;20.20;99.90;;;;;;4884483;29;20212;-75
2022/04/25 13:04:52;;;;;;;9.13;7.82;;;20.20;99.90;;;;;;4901887;29;20215;-71
2022/04/25 13:07:31;;;;;;;9.77;8.03;;;20.10;99.90;;;;;;4891827;29;20631;-74
2022/04/25 13:10:00;;;;;;;12.68;7.90;;;19.60;99.90;;;;;;4886157;29;20751;-72
2022/04/25 13:12:33;;;;;;;14.33;8.70;;;19.70;99.90;;;;;;4892553;29;20205;-70
2022/04/25 13:15:02;;;;;;;11.50;7.90;;;19.60;99.90;;;;;;4903797;29;20220;-72
2022/04/25 13:17:36;;;;;;;10.33;7.90;;;19.50;99.90;;;;;;4890303;29;20216;-76
2022/04/25 13:20:04;;;;;;;11.00;8.47;;;19.40;99.90;;;;;;4890642;29;20243;-73
2022/04/25 13:22:31;;;;;;;11.47;8.53;;;19.50;99.90;;;;;;4893713;29;20205;-73
2022/04/25 13:24:57;;;;;;;10.90;8.17;;;19.60;99.90;;;;;;4905085;29;20592;-73
2022/04/25 13:27:25;;;;;;;10.93;7.80;;;19.50;99.90;;;;;;4892590;29;20212;-71